This demonstration page uses our WeatherBlox Daily Observations layout. Learn more.

38.88101, -77.10428

Hourly Observations for October 17, 2017

Temp ( °F °C ) Dew Point ( °F °C ) Humidity (%) Winds ( mph kmh ) Pressure ( in mb ) Visibility ( mi km ) Precip ( " mm )
12:52 am 00:52 Clear 52 11.1 38 3.3 59 59 NNW 10 17 30.27 1025 10 16.0934 0 0
1:52 am 01:52 Clear 50 10 38 3.3 63 63 NNW 7 11 30.28 1025 10 16.0934 0 0
2:52 am 02:52 Clear 50 10 39 3.9 66 66 NNW 9 15 30.28 1026 10 16.0934 0 0
3:52 am 03:52 Clear 49 9.4 38 3.3 66 66 N 9 15 30.29 1026 10 16.0934 0 0
4:52 am 04:52 Clear 49 9.4 35 1.7 59 59 NNE 13 20 30.31 1027 10 16.0934 0 0
5:52 am 05:52 Clear 48 8.9 36 2.2 63 63 N 7 11 30.33 1027 10 16.0934 0 0
6:52 am 06:52 Mostly Clear 47 8.3 37 2.8 69 69 N 7 11 30.35 1028 10 16.0934 0 0
7:52 am 07:52 Mostly Sunny 48 8.9 35 1.7 61 61 NNE 9 15 30.37 1028 10 16.0934 0 0
8:52 am 08:52 Sunny 50 10 36 2.2 59 59 NE 9 15 30.4 1029 10 16.0934 0 0
9:52 am 09:52 Sunny 53 11.7 35 1.7 51 51 NNE 10 17 30.4 1030 10 16.0934 0 0
10:52 am 10:52 Sunny 55 12.8 33 0.6 44 44 NNE 14 22 30.4 1029 10 16.0934 0 0
11:52 am 11:52 Sunny 58 14.4 33 0.6 39 39 VRB 7 11 30.39 1029 10 16.0934 0 0
12:52 pm 12:52 Sunny 60 15.6 35 1.7 39 39 NNW 9 15 30.37 1028 10 16.0934 0 0
1:52 pm 13:52 Sunny 60 15.6 33 0.6 36 36 ENE 5 7 30.34 1027 10 16.0934 0 0
2:52 pm 14:52 Mostly Sunny 63 17.2 33 0.6 33 33 undefined N/A 30.32 1027 10 16.0934 0 0
3:52 pm 15:52 Mostly Sunny 63 17.2 32 0 31 31 NE 5 7 30.31 1026 10 16.0934 0 0
4:52 pm 16:52 Mostly Sunny 62 16.7 31 -0.6 31 31 Calm 30.3 1026 10 16.0934 0 0
5:52 pm 17:52 Mostly Sunny 60 15.6 33 0.6 36 36 SSE 3 6 30.3 1026 10 16.0934 0 0
6:52 pm 18:52 Clear 59 15 34 1.1 39 39 SSW 7 11 30.31 1026 10 16.0934 0 0
7:52 pm 19:52 Clear 57 13.9 36 2.2 45 45 SSW 7 11 30.31 1026 10 16.0934 0 0
8:52 pm 20:52 Clear 54 12.2 40 4.4 59 59 SSE 7 11 30.32 1027 10 16.0934 0 0
9:52 pm 21:52 Clear 53 11.7 42 5.6 66 66 SSE 6 9 30.34 1027 10 16.0934 0 0
10:52 pm 22:52 Clear 51 10.6 43 6.1 74 74 WSW 5 7 30.35 1028 10 16.0934 0 0
11:52 pm 23:52 Clear 50 10 41 5 71 71 SW 6 9 30.35 1028 10 16.0934 0 0

Powered by AerisWeather